YBRM

Details ICAO YBRM (BME)
Name Broome Intl
Region Australia
Timezone Australia/Perth (UTC+8.0)
Plans Departing 148
Arriving 157
Stats Elevation 56 ft / 17 m (AMSL)
Location -17.948700° 122.227000°
Runways 1
Magnetic Variation 1.728° E
Sunrise 2018-11-20 21:07:44 UTC / 2018-11-21 05:07:44 Local
Sunset 2018-11-21 10:08:52 UTC / 2018-11-21 18:08:52 Local
Advertisement - Login to hide

Runways

ID Width Length Bearing (true/mag) Surface Threshold Overrun Markings Lighting
10 148 ft / 45 m 8,325 ft / 2,537 m 105.60° / 103.88° ASPHALT 292 ft / 89 m 52 ft / 16 m APP EDGE THRESHOLD
28 148 ft / 45 m 8,325 ft / 2,537 m 285.60° / 283.87° ASPHALT 666 ft / 203 m 0 ft / 0 m APP EDGE THRESHOLD

Map

Weather


0- 5 10 15 20 25 30 35+ Temperature / °C

Clouds and Precipitation
Forecast for 2018-11-21 12:00 UTC. Updated 2 hours ago

Ground ~20,000 ft ~40,000 ft Winds

METAR

YBRM 211100Z AUTO 32008KT 9999 // NCD 28/21 Q1007

TAF

TAF YBRM 210504Z 2106/2206 29014KT CAVOK FM211800 28008KT 9999 SCT020 FM220300 27014KT CAVOK

Frequencies

Recorded 126.55 MHz YBRM ATIS
Unicom 123.90 MHz BRISBANE CENTRE MULT
Unicom 119.60 MHz ACTIVATE LIGHTS ONLY MULT
Unicom 126.00 MHz BROOME RADIO MULT
Warning: Do not use this data for real-world aviation or navigation. No guarantee of current accuracy is given.